sensor_id;sensor_type;location;lat;lon;timestamp;P1;durP1;ratioP1;P2;durP2;ratioP2
13832;SDS011;6987;19.472;-99.276;2023-06-10T00:01:30;4.35;;;3.65;;
13832;SDS011;6987;19.472;-99.276;2023-06-10T00:03:59;4.75;;;3.58;;
13832;SDS011;6987;19.472;-99.276;2023-06-10T00:06:28;3.45;;;3.15;;
13832;SDS011;6987;19.472;-99.276;2023-06-10T00:09:04;3.75;;;2.90;;
13832;SDS011;6987;19.472;-99.276;2023-06-10T00:11:33;6.35;;;3.08;;
13832;SDS011;6987;19.472;-99.276;2023-06-10T00:14:02;3.50;;;3.20;;
13832;SDS011;6987;19.472;-99.276;2023-06-10T00:16:32;4.13;;;3.30;;
13832;SDS011;6987;19.472;-99.276;2023-06-10T00:19:02;5.60;;;3.05;;
13832;SDS011;6987;19.472;-99.276;2023-06-10T00:21:31;3.88;;;2.83;;
13832;SDS011;6987;19.472;-99.276;2023-06-10T00:24:05;4.60;;;3.28;;
13832;SDS011;6987;19.472;-99.276;2023-06-10T00:26:37;3.85;;;2.63;;
13832;SDS011;6987;19.472;-99.276;2023-06-10T00:29:06;3.38;;;3.08;;
13832;SDS011;6987;19.472;-99.276;2023-06-10T00:31:36;3.50;;;3.25;;
13832;SDS011;6987;19.472;-99.276;2023-06-10T00:34:05;3.25;;;3.05;;
13832;SDS011;6987;19.472;-99.276;2023-06-10T00:36:35;3.38;;;3.10;;
13832;SDS011;6987;19.472;-99.276;2023-06-10T00:39:05;5.00;;;2.92;;
13832;SDS011;6987;19.472;-99.276;2023-06-10T00:41:34;2.85;;;2.75;;
13832;SDS011;6987;19.472;-99.276;2023-06-10T00:44:03;3.25;;;3.05;;
13832;SDS011;6987;19.472;-99.276;2023-06-10T00:46:32;3.33;;;3.03;;
13832;SDS011;6987;19.472;-99.276;2023-06-10T00:49:03;4.15;;;2.95;;
13832;SDS011;6987;19.472;-99.276;2023-06-10T00:51:32;2.90;;;2.67;;
13832;SDS011;6987;19.472;-99.276;2023-06-10T00:54:02;5.55;;;3.53;;
13832;SDS011;6987;19.472;-99.276;2023-06-10T00:56:33;3.22;;;2.92;;
13832;SDS011;6987;19.472;-99.276;2023-06-10T00:59:02;3.30;;;3.08;;
13832;SDS011;6987;19.472;-99.276;2023-06-10T01:01:31;3.70;;;3.40;;
13832;SDS011;6987;19.472;-99.276;2023-06-10T01:04:00;4.45;;;4.10;;
13832;SDS011;6987;19.472;-99.276;2023-06-10T01:06:30;4.60;;;4.22;;
13832;SDS011;6987;19.472;-99.276;2023-06-10T01:09:06;8.20;;;4.80;;
13832;SDS011;6987;19.472;-99.276;2023-06-10T01:11:49;9.75;;;5.28;;
13832;SDS011;6987;19.472;-99.276;2023-06-10T01:14:20;4.80;;;4.40;;
13832;SDS011;6987;19.472;-99.276;2023-06-10T01:16:50;8.57;;;4.32;;
13832;SDS011;6987;19.472;-99.276;2023-06-10T01:19:20;4.50;;;3.92;;
13832;SDS011;6987;19.472;-99.276;2023-06-10T01:21:51;5.03;;;3.85;;
13832;SDS011;6987;19.472;-99.276;2023-06-10T01:24:20;7.85;;;4.55;;
13832;SDS011;6987;19.472;-99.276;2023-06-10T01:26:50;6.22;;;4.22;;
13832;SDS011;6987;19.472;-99.276;2023-06-10T01:29:20;4.05;;;3.53;;
13832;SDS011;6987;19.472;-99.276;2023-06-10T01:31:52;7.18;;;3.92;;
13832;SDS011;6987;19.472;-99.276;2023-06-10T01:34:23;15.80;;;5.45;;
13832;SDS011;6987;19.472;-99.276;2023-06-10T01:36:55;9.18;;;4.50;;
13832;SDS011;6987;19.472;-99.276;2023-06-10T01:39:25;5.90;;;4.00;;
13832;SDS011;6987;19.472;-99.276;2023-06-10T01:41:54;6.43;;;4.18;;
13832;SDS011;6987;19.472;-99.276;2023-06-10T01:44:24;6.93;;;4.15;;
13832;SDS011;6987;19.472;-99.276;2023-06-10T01:46:53;4.85;;;3.63;;
13832;SDS011;6987;19.472;-99.276;2023-06-10T01:49:22;9.05;;;5.53;;
13832;SDS011;6987;19.472;-99.276;2023-06-10T01:51:52;9.15;;;5.13;;
13832;SDS011;6987;19.472;-99.276;2023-06-10T01:54:23;9.77;;;5.05;;
13832;SDS011;6987;19.472;-99.276;2023-06-10T01:56:52;6.78;;;4.55;;
13832;SDS011;6987;19.472;-99.276;2023-06-10T01:59:21;6.10;;;5.18;;
13832;SDS011;6987;19.472;-99.276;2023-06-10T02:01:50;6.97;;;4.28;;
13832;SDS011;6987;19.472;-99.276;2023-06-10T02:04:19;11.20;;;4.93;;
13832;SDS011;6987;19.472;-99.276;2023-06-10T02:06:48;8.55;;;4.72;;
13832;SDS011;6987;19.472;-99.276;2023-06-10T02:09:17;5.60;;;4.35;;
13832;SDS011;6987;19.472;-99.276;2023-06-10T02:11:48;7.75;;;4.78;;
13832;SDS011;6987;19.472;-99.276;2023-06-10T02:14:17;9.02;;;4.57;;
13832;SDS011;6987;19.472;-99.276;2023-06-10T02:16:46;8.77;;;4.85;;
13832;SDS011;6987;19.472;-99.276;2023-06-10T02:19:15;10.38;;;4.68;;
13832;SDS011;6987;19.472;-99.276;2023-06-10T02:21:47;7.38;;;5.65;;
13832;SDS011;6987;19.472;-99.276;2023-06-10T02:24:16;10.25;;;6.20;;
13832;SDS011;6987;19.472;-99.276;2023-06-10T02:26:45;10.55;;;6.43;;
13832;SDS011;6987;19.472;-99.276;2023-06-10T02:29:16;8.60;;;6.65;;
13832;SDS011;6987;19.472;-99.276;2023-06-10T02:31:45;19.48;;;6.70;;
13832;SDS011;6987;19.472;-99.276;2023-06-10T02:34:14;7.10;;;6.30;;
13832;SDS011;6987;19.472;-99.276;2023-06-10T02:36:44;15.75;;;6.20;;
13832;SDS011;6987;19.472;-99.276;2023-06-10T02:39:14;13.02;;;6.60;;
13832;SDS011;6987;19.472;-99.276;2023-06-10T02:41:43;17.65;;;6.57;;
13832;SDS011;6987;19.472;-99.276;2023-06-10T02:44:13;14.20;;;6.93;;
13832;SDS011;6987;19.472;-99.276;2023-06-10T02:46:43;11.52;;;7.38;;
13832;SDS011;6987;19.472;-99.276;2023-06-10T02:49:12;8.93;;;6.30;;
13832;SDS011;6987;19.472;-99.276;2023-06-10T02:51:41;10.63;;;6.75;;
13832;SDS011;6987;19.472;-99.276;2023-06-10T02:54:10;10.10;;;6.00;;
13832;SDS011;6987;19.472;-99.276;2023-06-10T02:56:39;9.35;;;6.32;;
13832;SDS011;6987;19.472;-99.276;2023-06-10T02:59:08;10.00;;;5.82;;
13832;SDS011;6987;19.472;-99.276;2023-06-10T03:01:37;14.50;;;6.85;;
13832;SDS011;6987;19.472;-99.276;2023-06-10T03:04:08;10.77;;;6.50;;
13832;SDS011;6987;19.472;-99.276;2023-06-10T03:06:39;9.07;;;6.60;;
13832;SDS011;6987;19.472;-99.276;2023-06-10T03:09:08;9.05;;;6.68;;
13832;SDS011;6987;19.472;-99.276;2023-06-10T03:11:37;21.17;;;8.73;;
13832;SDS011;6987;19.472;-99.276;2023-06-10T03:14:06;18.52;;;8.38;;
13832;SDS011;6987;19.472;-99.276;2023-06-10T03:16:34;14.05;;;7.47;;
13832;SDS011;6987;19.472;-99.276;2023-06-10T03:19:06;9.43;;;7.63;;
13832;SDS011;6987;19.472;-99.276;2023-06-10T03:21:37;8.55;;;6.78;;
13832;SDS011;6987;19.472;-99.276;2023-06-10T03:24:07;18.20;;;7.40;;
13832;SDS011;6987;19.472;-99.276;2023-06-10T03:26:36;13.05;;;7.07;;
13832;SDS011;6987;19.472;-99.276;2023-06-10T03:29:05;20.17;;;7.30;;
13832;SDS011;6987;19.472;-99.276;2023-06-10T03:31:34;23.90;;;7.82;;
13832;SDS011;6987;19.472;-99.276;2023-06-10T03:34:04;16.88;;;8.05;;
13832;SDS011;6987;19.472;-99.276;2023-06-10T03:36:33;12.70;;;8.10;;
13832;SDS011;6987;19.472;-99.276;2023-06-10T03:39:05;19.83;;;8.55;;
13832;SDS011;6987;19.472;-99.276;2023-06-10T03:41:34;13.10;;;7.18;;
13832;SDS011;6987;19.472;-99.276;2023-06-10T03:44:03;8.48;;;7.13;;
13832;SDS011;6987;19.472;-99.276;2023-06-10T03:46:32;12.07;;;7.70;;
13832;SDS011;6987;19.472;-99.276;2023-06-10T03:49:01;12.73;;;7.43;;
13832;SDS011;6987;19.472;-99.276;2023-06-10T03:51:30;12.80;;;7.55;;
13832;SDS011;6987;19.472;-99.276;2023-06-10T03:53:59;12.95;;;8.68;;
13832;SDS011;6987;19.472;-99.276;2023-06-10T03:56:30;11.75;;;7.90;;
13832;SDS011;6987;19.472;-99.276;2023-06-10T03:58:59;8.48;;;7.68;;
13832;SDS011;6987;19.472;-99.276;2023-06-10T04:01:28;17.55;;;7.90;;
13832;SDS011;6987;19.472;-99.276;2023-06-10T04:03:57;11.93;;;8.20;;
13832;SDS011;6987;19.472;-99.276;2023-06-10T04:06:27;13.88;;;9.32;;
13832;SDS011;6987;19.472;-99.276;2023-06-10T04:08:56;10.70;;;8.10;;
13832;SDS011;6987;19.472;-99.276;2023-06-10T04:11:25;10.38;;;8.25;;
13832;SDS011;6987;19.472;-99.276;2023-06-10T04:13:55;10.43;;;7.90;;
13832;SDS011;6987;19.472;-99.276;2023-06-10T04:16:25;11.73;;;7.78;;
13832;SDS011;6987;19.472;-99.276;2023-06-10T04:18:54;11.50;;;7.88;;
13832;SDS011;6987;19.472;-99.276;2023-06-10T04:21:23;9.02;;;8.10;;
13832;SDS011;6987;19.472;-99.276;2023-06-10T04:23:52;11.85;;;8.05;;
13832;SDS011;6987;19.472;-99.276;2023-06-10T04:26:21;15.07;;;7.75;;
13832;SDS011;6987;19.472;-99.276;2023-06-10T04:28:51;12.05;;;7.93;;
13832;SDS011;6987;19.472;-99.276;2023-06-10T04:31:21;11.32;;;7.97;;
13832;SDS011;6987;19.472;-99.276;2023-06-10T04:33:51;14.52;;;8.02;;
13832;SDS011;6987;19.472;-99.276;2023-06-10T04:36:20;11.13;;;7.65;;
13832;SDS011;6987;19.472;-99.276;2023-06-10T04:38:49;8.73;;;7.90;;
13832;SDS011;6987;19.472;-99.276;2023-06-10T04:41:18;8.35;;;7.57;;
13832;SDS011;6987;19.472;-99.276;2023-06-10T04:43:48;11.68;;;8.25;;
13832;SDS011;6987;19.472;-99.276;2023-06-10T04:46:17;9.00;;;8.10;;
13832;SDS011;6987;19.472;-99.276;2023-06-10T04:48:47;8.77;;;7.78;;
13832;SDS011;6987;19.472;-99.276;2023-06-10T04:51:16;9.13;;;7.90;;
13832;SDS011;6987;19.472;-99.276;2023-06-10T04:53:45;11.55;;;7.85;;
13832;SDS011;6987;19.472;-99.276;2023-06-10T04:56:14;10.88;;;7.93;;
13832;SDS011;6987;19.472;-99.276;2023-06-10T04:58:43;9.35;;;7.70;;
13832;SDS011;6987;19.472;-99.276;2023-06-10T05:01:12;10.55;;;7.13;;
13832;SDS011;6987;19.472;-99.276;2023-06-10T05:03:41;9.23;;;7.63;;
13832;SDS011;6987;19.472;-99.276;2023-06-10T05:06:12;11.18;;;8.27;;
13832;SDS011;6987;19.472;-99.276;2023-06-10T05:08:41;8.40;;;7.60;;
13832;SDS011;6987;19.472;-99.276;2023-06-10T05:11:10;11.40;;;8.75;;
13832;SDS011;6987;19.472;-99.276;2023-06-10T05:13:39;11.10;;;8.10;;
13832;SDS011;6987;19.472;-99.276;2023-06-10T05:16:08;9.13;;;8.15;;
13832;SDS011;6987;19.472;-99.276;2023-06-10T05:18:37;8.48;;;7.53;;
13832;SDS011;6987;19.472;-99.276;2023-06-10T05:21:06;11.57;;;7.65;;
13832;SDS011;6987;19.472;-99.276;2023-06-10T05:23:36;9.02;;;7.88;;
13832;SDS011;6987;19.472;-99.276;2023-06-10T05:26:05;10.43;;;8.40;;
13832;SDS011;6987;19.472;-99.276;2023-06-10T05:28:34;9.90;;;8.40;;
13832;SDS011;6987;19.472;-99.276;2023-06-10T05:31:03;13.50;;;8.65;;
13832;SDS011;6987;19.472;-99.276;2023-06-10T05:33:33;9.65;;;7.97;;
13832;SDS011;6987;19.472;-99.276;2023-06-10T05:36:01;9.70;;;8.55;;
13832;SDS011;6987;19.472;-99.276;2023-06-10T05:38:30;14.05;;;8.25;;
13832;SDS011;6987;19.472;-99.276;2023-06-10T05:41:01;13.63;;;9.48;;
13832;SDS011;6987;19.472;-99.276;2023-06-10T05:43:30;9.60;;;8.55;;
13832;SDS011;6987;19.472;-99.276;2023-06-10T05:45:59;11.65;;;8.45;;
13832;SDS011;6987;19.472;-99.276;2023-06-10T05:48:27;10.60;;;8.85;;
13832;SDS011;6987;19.472;-99.276;2023-06-10T05:50:56;9.65;;;7.57;;
13832;SDS011;6987;19.472;-99.276;2023-06-10T05:53:25;10.07;;;8.48;;
13832;SDS011;6987;19.472;-99.276;2023-06-10T05:55:54;9.88;;;8.05;;
13832;SDS011;6987;19.472;-99.276;2023-06-10T05:58:25;12.48;;;7.60;;
13832;SDS011;6987;19.472;-99.276;2023-06-10T06:00:53;13.20;;;8.50;;
13832;SDS011;6987;19.472;-99.276;2023-06-10T06:03:22;9.90;;;8.02;;
13832;SDS011;6987;19.472;-99.276;2023-06-10T06:05:51;11.10;;;7.80;;
13832;SDS011;6987;19.472;-99.276;2023-06-10T06:08:20;12.30;;;8.35;;
13832;SDS011;6987;19.472;-99.276;2023-06-10T06:10:49;8.93;;;7.60;;
13832;SDS011;6987;19.472;-99.276;2023-06-10T06:13:18;9.40;;;8.48;;
13832;SDS011;6987;19.472;-99.276;2023-06-10T06:15:49;9.30;;;8.43;;
13832;SDS011;6987;19.472;-99.276;2023-06-10T06:18:18;10.45;;;8.35;;
13832;SDS011;6987;19.472;-99.276;2023-06-10T06:20:47;12.38;;;8.60;;
13832;SDS011;6987;19.472;-99.276;2023-06-10T06:23:16;10.38;;;8.85;;
13832;SDS011;6987;19.472;-99.276;2023-06-10T06:25:44;10.20;;;9.25;;
13832;SDS011;6987;19.472;-99.276;2023-06-10T06:28:13;9.52;;;8.52;;
13832;SDS011;6987;19.472;-99.276;2023-06-10T06:30:42;11.98;;;8.98;;
13832;SDS011;6987;19.472;-99.276;2023-06-10T06:33:13;14.73;;;8.45;;
13832;SDS011;6987;19.472;-99.276;2023-06-10T06:35:42;12.02;;;8.20;;
13832;SDS011;6987;19.472;-99.276;2023-06-10T06:38:11;11.77;;;9.13;;
13832;SDS011;6987;19.472;-99.276;2023-06-10T06:40:40;10.45;;;8.93;;
13832;SDS011;6987;19.472;-99.276;2023-06-10T06:43:08;9.07;;;8.27;;
13832;SDS011;6987;19.472;-99.276;2023-06-10T06:45:37;10.52;;;8.95;;
13832;SDS011;6987;19.472;-99.276;2023-06-10T06:48:06;9.98;;;8.80;;
13832;SDS011;6987;19.472;-99.276;2023-06-10T06:50:37;9.68;;;8.63;;
13832;SDS011;6987;19.472;-99.276;2023-06-10T06:53:07;13.27;;;9.80;;
13832;SDS011;6987;19.472;-99.276;2023-06-10T06:55:36;10.80;;;9.73;;
13832;SDS011;6987;19.472;-99.276;2023-06-10T06:58:05;10.45;;;9.35;;
13832;SDS011;6987;19.472;-99.276;2023-06-10T07:00:34;12.88;;;8.88;;
13832;SDS011;6987;19.472;-99.276;2023-06-10T07:03:03;10.35;;;9.43;;
13832;SDS011;6987;19.472;-99.276;2023-06-10T07:05:32;10.23;;;9.15;;
13832;SDS011;6987;19.472;-99.276;2023-06-10T07:08:03;28.77;;;11.02;;
13832;SDS011;6987;19.472;-99.276;2023-06-10T07:10:32;12.45;;;9.50;;
13832;SDS011;6987;19.472;-99.276;2023-06-10T07:13:01;13.95;;;9.57;;
13832;SDS011;6987;19.472;-99.276;2023-06-10T07:15:30;15.25;;;10.13;;
13832;SDS011;6987;19.472;-99.276;2023-06-10T07:17:59;16.20;;;9.40;;
13832;SDS011;6987;19.472;-99.276;2023-06-10T07:20:28;10.70;;;9.60;;
13832;SDS011;6987;19.472;-99.276;2023-06-10T07:22:57;10.57;;;9.48;;
13832;SDS011;6987;19.472;-99.276;2023-06-10T07:25:28;12.27;;;10.60;;
13832;SDS011;6987;19.472;-99.276;2023-06-10T07:27:57;13.40;;;9.57;;
13832;SDS011;6987;19.472;-99.276;2023-06-10T07:30:26;10.40;;;8.80;;
13832;SDS011;6987;19.472;-99.276;2023-06-10T07:32:55;10.40;;;9.32;;
13832;SDS011;6987;19.472;-99.276;2023-06-10T07:35:24;10.98;;;9.85;;
13832;SDS011;6987;19.472;-99.276;2023-06-10T07:37:53;15.65;;;10.07;;
13832;SDS011;6987;19.472;-99.276;2023-06-10T07:40:22;12.85;;;9.75;;
13832;SDS011;6987;19.472;-99.276;2023-06-10T07:42:53;11.68;;;10.38;;
13832;SDS011;6987;19.472;-99.276;2023-06-10T07:45:22;12.63;;;9.60;;
13832;SDS011;6987;19.472;-99.276;2023-06-10T07:47:50;12.32;;;10.15;;
13832;SDS011;6987;19.472;-99.276;2023-06-10T07:50:19;15.50;;;9.57;;
13832;SDS011;6987;19.472;-99.276;2023-06-10T07:52:48;11.43;;;10.05;;
13832;SDS011;6987;19.472;-99.276;2023-06-10T07:55:17;11.27;;;10.07;;
13832;SDS011;6987;19.472;-99.276;2023-06-10T07:57:46;11.30;;;10.00;;
13832;SDS011;6987;19.472;-99.276;2023-06-10T08:00:17;16.85;;;11.18;;
13832;SDS011;6987;19.472;-99.276;2023-06-10T08:02:46;12.80;;;10.30;;
13832;SDS011;6987;19.472;-99.276;2023-06-10T08:05:16;12.73;;;10.38;;
13832;SDS011;6987;19.472;-99.276;2023-06-10T08:07:46;13.38;;;10.57;;
13832;SDS011;6987;19.472;-99.276;2023-06-10T08:10:14;13.40;;;10.23;;
13832;SDS011;6987;19.472;-99.276;2023-06-10T08:12:43;13.38;;;10.50;;
13832;SDS011;6987;19.472;-99.276;2023-06-10T08:15:13;12.27;;;10.43;;
13832;SDS011;6987;19.472;-99.276;2023-06-10T08:17:43;16.55;;;10.13;;
13832;SDS011;6987;19.472;-99.276;2023-06-10T08:20:12;14.55;;;9.80;;
13832;SDS011;6987;19.472;-99.276;2023-06-10T08:22:41;11.80;;;10.02;;
13832;SDS011;6987;19.472;-99.276;2023-06-10T08:25:10;13.38;;;9.82;;
13832;SDS011;6987;19.472;-99.276;2023-06-10T08:27:39;11.05;;;9.95;;
13832;SDS011;6987;19.472;-99.276;2023-06-10T08:30:08;14.45;;;9.55;;
13832;SDS011;6987;19.472;-99.276;2023-06-10T08:32:38;10.80;;;9.75;;
13832;SDS011;6987;19.472;-99.276;2023-06-10T08:35:09;13.27;;;9.48;;
13832;SDS011;6987;19.472;-99.276;2023-06-10T08:37:38;15.88;;;10.30;;
13832;SDS011;6987;19.472;-99.276;2023-06-10T08:40:08;11.32;;;10.32;;
13832;SDS011;6987;19.472;-99.276;2023-06-10T08:42:39;14.63;;;9.77;;
13832;SDS011;6987;19.472;-99.276;2023-06-10T08:45:08;11.32;;;9.85;;
13832;SDS011;6987;19.472;-99.276;2023-06-10T08:47:39;10.77;;;9.73;;
13832;SDS011;6987;19.472;-99.276;2023-06-10T08:50:13;11.65;;;9.43;;
13832;SDS011;6987;19.472;-99.276;2023-06-10T08:52:44;10.75;;;9.75;;
13832;SDS011;6987;19.472;-99.276;2023-06-10T08:55:15;12.88;;;9.70;;
13832;SDS011;6987;19.472;-99.276;2023-06-10T08:57:45;12.07;;;9.27;;
13832;SDS011;6987;19.472;-99.276;2023-06-10T09:00:14;12.52;;;10.57;;
13832;SDS011;6987;19.472;-99.276;2023-06-10T09:02:44;12.57;;;10.65;;
13832;SDS011;6987;19.472;-99.276;2023-06-10T09:05:16;11.85;;;9.90;;
13832;SDS011;6987;19.472;-99.276;2023-06-10T09:07:45;11.88;;;10.35;;
13832;SDS011;6987;19.472;-99.276;2023-06-10T09:10:14;11.05;;;9.90;;
13832;SDS011;6987;19.472;-99.276;2023-06-10T09:12:43;10.57;;;9.48;;
13832;SDS011;6987;19.472;-99.276;2023-06-10T09:15:12;11.70;;;9.73;;
13832;SDS011;6987;19.472;-99.276;2023-06-10T09:17:43;10.27;;;9.27;;
13832;SDS011;6987;19.472;-99.276;2023-06-10T09:20:12;10.43;;;9.38;;
13832;SDS011;6987;19.472;-99.276;2023-06-10T09:22:43;11.35;;;9.18;;
13832;SDS011;6987;19.472;-99.276;2023-06-10T09:25:12;11.40;;;9.35;;
13832;SDS011;6987;19.472;-99.276;2023-06-10T09:27:45;13.48;;;10.10;;
13832;SDS011;6987;19.472;-99.276;2023-06-10T09:33:03;10.38;;;9.40;;
13832;SDS011;6987;19.472;-99.276;2023-06-10T09:35:37;12.68;;;10.30;;
13832;SDS011;6987;19.472;-99.276;2023-06-10T09:38:15;11.73;;;10.68;;
13832;SDS011;6987;19.472;-99.276;2023-06-10T09:40:51;10.55;;;9.52;;
13832;SDS011;6987;19.472;-99.276;2023-06-10T09:43:20;11.32;;;9.75;;
13832;SDS011;6987;19.472;-99.276;2023-06-10T09:45:50;12.07;;;9.57;;
13832;SDS011;6987;19.472;-99.276;2023-06-10T09:48:20;10.85;;;9.70;;
13832;SDS011;6987;19.472;-99.276;2023-06-10T09:50:49;11.18;;;9.52;;
13832;SDS011;6987;19.472;-99.276;2023-06-10T09:53:20;13.70;;;9.80;;
13832;SDS011;6987;19.472;-99.276;2023-06-10T09:55:50;12.23;;;9.98;;
13832;SDS011;6987;19.472;-99.276;2023-06-10T09:58:33;10.50;;;9.45;;
13832;SDS011;6987;19.472;-99.276;2023-06-10T10:01:04;11.05;;;9.77;;
13832;SDS011;6987;19.472;-99.276;2023-06-10T10:03:34;11.13;;;9.10;;
13832;SDS011;6987;19.472;-99.276;2023-06-10T10:06:11;10.77;;;9.68;;
13832;SDS011;6987;19.472;-99.276;2023-06-10T10:08:42;10.75;;;9.75;;
13832;SDS011;6987;19.472;-99.276;2023-06-10T10:11:11;10.15;;;9.18;;
13832;SDS011;6987;19.472;-99.276;2023-06-10T10:13:40;9.65;;;8.75;;
13832;SDS011;6987;19.472;-99.276;2023-06-10T10:16:11;11.05;;;9.95;;
13832;SDS011;6987;19.472;-99.276;2023-06-10T10:18:41;10.88;;;9.77;;
13832;SDS011;6987;19.472;-99.276;2023-06-10T10:21:11;11.48;;;9.77;;
13832;SDS011;6987;19.472;-99.276;2023-06-10T10:23:44;9.63;;;8.65;;
13832;SDS011;6987;19.472;-99.276;2023-06-10T10:26:14;10.02;;;9.05;;
13832;SDS011;6987;19.472;-99.276;2023-06-10T10:28:45;14.73;;;8.50;;
13832;SDS011;6987;19.472;-99.276;2023-06-10T10:31:15;13.60;;;9.68;;
13832;SDS011;6987;19.472;-99.276;2023-06-10T10:33:48;15.35;;;9.18;;
13832;SDS011;6987;19.472;-99.276;2023-06-10T10:36:19;10.15;;;8.52;;
13832;SDS011;6987;19.472;-99.276;2023-06-10T10:38:50;11.25;;;9.23;;
13832;SDS011;6987;19.472;-99.276;2023-06-10T10:41:20;10.63;;;8.98;;
13832;SDS011;6987;19.472;-99.276;2023-06-10T10:43:50;10.93;;;8.48;;
13832;SDS011;6987;19.472;-99.276;2023-06-10T10:46:20;9.05;;;8.25;;
13832;SDS011;6987;19.472;-99.276;2023-06-10T10:48:52;14.70;;;9.10;;
13832;SDS011;6987;19.472;-99.276;2023-06-10T10:51:22;11.05;;;9.18;;
13832;SDS011;6987;19.472;-99.276;2023-06-10T10:54:12;13.27;;;9.07;;
13832;SDS011;6987;19.472;-99.276;2023-06-10T10:59:24;13.30;;;8.93;;
13832;SDS011;6987;19.472;-99.276;2023-06-10T11:01:54;12.32;;;8.35;;
13832;SDS011;6987;19.472;-99.276;2023-06-10T11:04:26;11.02;;;8.82;;
13832;SDS011;6987;19.472;-99.276;2023-06-10T11:06:55;12.18;;;9.07;;
13832;SDS011;6987;19.472;-99.276;2023-06-10T11:09:36;9.80;;;8.15;;
13832;SDS011;6987;19.472;-99.276;2023-06-10T11:12:05;11.90;;;8.05;;
13832;SDS011;6987;19.472;-99.276;2023-06-10T11:14:35;10.38;;;8.48;;
13832;SDS011;6987;19.472;-99.276;2023-06-10T11:17:05;8.68;;;7.28;;
13832;SDS011;6987;19.472;-99.276;2023-06-10T11:19:46;11.60;;;7.65;;
13832;SDS011;6987;19.472;-99.276;2023-06-10T11:22:16;9.70;;;7.80;;
13832;SDS011;6987;19.472;-99.276;2023-06-10T11:24:50;8.30;;;7.45;;
13832;SDS011;6987;19.472;-99.276;2023-06-10T11:27:19;9.35;;;8.02;;
13832;SDS011;6987;19.472;-99.276;2023-06-10T11:29:56;9.40;;;8.32;;
13832;SDS011;6987;19.472;-99.276;2023-06-10T11:32:25;12.10;;;7.78;;
13832;SDS011;6987;19.472;-99.276;2023-06-10T11:34:57;9.65;;;7.78;;
13832;SDS011;6987;19.472;-99.276;2023-06-10T11:37:26;10.02;;;7.60;;
13832;SDS011;6987;19.472;-99.276;2023-06-10T11:39:58;10.30;;;7.57;;
13832;SDS011;6987;19.472;-99.276;2023-06-10T11:42:27;10.35;;;7.78;;
13832;SDS011;6987;19.472;-99.276;2023-06-10T11:44:56;13.90;;;7.88;;
13832;SDS011;6987;19.472;-99.276;2023-06-10T11:47:28;10.55;;;8.35;;
13832;SDS011;6987;19.472;-99.276;2023-06-10T11:49:57;12.20;;;8.23;;
13832;SDS011;6987;19.472;-99.276;2023-06-10T11:52:26;11.18;;;8.13;;
13832;SDS011;6987;19.472;-99.276;2023-06-10T11:54:59;17.60;;;7.90;;
13832;SDS011;6987;19.472;-99.276;2023-06-10T11:57:30;11.00;;;7.88;;
13832;SDS011;6987;19.472;-99.276;2023-06-10T12:00:04;9.15;;;7.65;;
13832;SDS011;6987;19.472;-99.276;2023-06-10T12:02:33;8.55;;;7.65;;
13832;SDS011;6987;19.472;-99.276;2023-06-10T12:05:10;15.77;;;7.53;;
13832;SDS011;6987;19.472;-99.276;2023-06-10T12:07:38;11.77;;;8.18;;
13832;SDS011;6987;19.472;-99.276;2023-06-10T12:10:10;13.73;;;8.52;;
13832;SDS011;6987;19.472;-99.276;2023-06-10T12:12:39;14.20;;;7.93;;
13832;SDS011;6987;19.472;-99.276;2023-06-10T12:15:09;15.10;;;7.72;;
13832;SDS011;6987;19.472;-99.276;2023-06-10T12:17:38;10.27;;;7.93;;
13832;SDS011;6987;19.472;-99.276;2023-06-10T12:20:08;10.30;;;7.65;;
13832;SDS011;6987;19.472;-99.276;2023-06-10T12:22:38;13.77;;;8.02;;
13832;SDS011;6987;19.472;-99.276;2023-06-10T12:25:09;12.60;;;8.05;;
13832;SDS011;6987;19.472;-99.276;2023-06-10T12:27:40;10.00;;;8.07;;
13832;SDS011;6987;19.472;-99.276;2023-06-10T12:30:09;9.90;;;7.97;;
13832;SDS011;6987;19.472;-99.276;2023-06-10T12:32:39;11.98;;;7.68;;
13832;SDS011;6987;19.472;-99.276;2023-06-10T12:35:08;16.27;;;7.80;;
13832;SDS011;6987;19.472;-99.276;2023-06-10T12:37:38;10.18;;;7.70;;
13832;SDS011;6987;19.472;-99.276;2023-06-10T12:40:10;10.55;;;8.02;;
13832;SDS011;6987;19.472;-99.276;2023-06-10T12:42:39;9.93;;;7.85;;
13832;SDS011;6987;19.472;-99.276;2023-06-10T12:45:08;10.35;;;7.95;;
13832;SDS011;6987;19.472;-99.276;2023-06-10T12:47:38;11.85;;;8.55;;
13832;SDS011;6987;19.472;-99.276;2023-06-10T12:50:08;12.63;;;7.70;;
13832;SDS011;6987;19.472;-99.276;2023-06-10T12:52:37;9.88;;;7.85;;
13832;SDS011;6987;19.472;-99.276;2023-06-10T12:55:07;9.45;;;7.93;;
13832;SDS011;6987;19.472;-99.276;2023-06-10T12:57:38;9.00;;;7.88;;
13832;SDS011;6987;19.472;-99.276;2023-06-10T13:00:16;7.88;;;7.18;;
13832;SDS011;6987;19.472;-99.276;2023-06-10T13:02:45;8.52;;;7.72;;
13832;SDS011;6987;19.472;-99.276;2023-06-10T13:05:14;8.48;;;7.55;;
13832;SDS011;6987;19.472;-99.276;2023-06-10T13:07:43;10.63;;;8.50;;
13832;SDS011;6987;19.472;-99.276;2023-06-10T13:10:12;8.80;;;8.00;;
13832;SDS011;6987;19.472;-99.276;2023-06-10T13:12:43;9.82;;;8.82;;
13832;SDS011;6987;19.472;-99.276;2023-06-10T13:15:13;10.13;;;8.07;;
13832;SDS011;6987;19.472;-99.276;2023-06-10T13:17:42;10.23;;;8.65;;
13832;SDS011;6987;19.472;-99.276;2023-06-10T13:20:11;9.75;;;8.75;;
13832;SDS011;6987;19.472;-99.276;2023-06-10T13:22:40;11.40;;;9.18;;
13832;SDS011;6987;19.472;-99.276;2023-06-10T13:25:09;13.98;;;9.18;;
13832;SDS011;6987;19.472;-99.276;2023-06-10T13:27:38;10.38;;;9.27;;
13832;SDS011;6987;19.472;-99.276;2023-06-10T13:30:09;11.48;;;8.77;;
13832;SDS011;6987;19.472;-99.276;2023-06-10T13:32:38;14.00;;;9.25;;
13832;SDS011;6987;19.472;-99.276;2023-06-10T13:35:08;10.02;;;8.80;;
13832;SDS011;6987;19.472;-99.276;2023-06-10T13:37:37;11.32;;;9.35;;
13832;SDS011;6987;19.472;-99.276;2023-06-10T13:40:06;10.93;;;9.82;;
13832;SDS011;6987;19.472;-99.276;2023-06-10T13:42:35;10.35;;;9.40;;
13832;SDS011;6987;19.472;-99.276;2023-06-10T13:45:04;11.70;;;9.85;;
13832;SDS011;6987;19.472;-99.276;2023-06-10T13:47:37;13.25;;;10.40;;
13832;SDS011;6987;19.472;-99.276;2023-06-10T13:50:06;15.38;;;10.48;;
13832;SDS011;6987;19.472;-99.276;2023-06-10T13:52:35;13.23;;;11.10;;
13832;SDS011;6987;19.472;-99.276;2023-06-10T13:55:05;12.32;;;11.02;;
13832;SDS011;6987;19.472;-99.276;2023-06-10T13:57:34;16.02;;;12.10;;
13832;SDS011;6987;19.472;-99.276;2023-06-10T14:00:03;13.52;;;11.82;;
13832;SDS011;6987;19.472;-99.276;2023-06-10T14:02:33;14.88;;;11.65;;
13832;SDS011;6987;19.472;-99.276;2023-06-10T14:05:04;18.02;;;13.50;;
13832;SDS011;6987;19.472;-99.276;2023-06-10T14:07:33;16.10;;;13.43;;
13832;SDS011;6987;19.472;-99.276;2023-06-10T14:10:03;16.67;;;13.55;;
13832;SDS011;6987;19.472;-99.276;2023-06-10T14:12:33;16.65;;;14.02;;
13832;SDS011;6987;19.472;-99.276;2023-06-10T14:15:03;19.45;;;14.35;;
13832;SDS011;6987;19.472;-99.276;2023-06-10T14:17:32;16.20;;;13.95;;
13832;SDS011;6987;19.472;-99.276;2023-06-10T14:20:03;22.52;;;14.10;;
13832;SDS011;6987;19.472;-99.276;2023-06-10T14:22:32;17.38;;;13.60;;
13832;SDS011;6987;19.472;-99.276;2023-06-10T14:25:01;21.58;;;14.48;;
13832;SDS011;6987;19.472;-99.276;2023-06-10T14:27:30;18.55;;;15.02;;
13832;SDS011;6987;19.472;-99.276;2023-06-10T14:30:00;18.15;;;15.02;;
13832;SDS011;6987;19.472;-99.276;2023-06-10T14:32:28;17.10;;;13.80;;
13832;SDS011;6987;19.472;-99.276;2023-06-10T14:34:58;17.52;;;15.48;;
13832;SDS011;6987;19.472;-99.276;2023-06-10T14:37:29;26.77;;;14.73;;
13832;SDS011;6987;19.472;-99.276;2023-06-10T14:39:58;17.98;;;14.88;;
13832;SDS011;6987;19.472;-99.276;2023-06-10T14:42:27;18.60;;;16.58;;
13832;SDS011;6987;19.472;-99.276;2023-06-10T14:44:57;17.02;;;14.57;;